Colo, IA (50056)

6:43 PM CST on February 14, 2016 (GMT -0600)
IEM | | Change Station
CLOSE
Current Station
Personal Weather Station
Location: Nevada, IA
Elevation: 1026 ft
Nearby Weather Stations

Elev 1026 ft 42.02 °N, 93.44 °W | Updated 24 minutes ago

Overcast
Overcast
18 °F
Feels Like 18 °F
N
0
Wind Variable Wind from North
Gusts 0.0 mph

Today
High -- | Low -- °F
--% Chance of Precip.
Yesterday
High -- | Low -- °F
Precip. -- in
Pressure 29.90 in
Visibility 10.0 miles
Clouds Mostly Cloudy 1100 ft
Overcast 2700 ft
Windchill 18 °F
Dew Point 18 °F
Humidity 100%
Rainfall in
Snow Depth Not available.
7:11 AM 5:44 PM
Waxing Crescent, 47% visible
SPECI KAMW 150025Z AUTO 11005KT 10SM BKN011 OVC027 M06/M08 A2990 RMK AO2 T10611083
Pressure 29.90 in
Visibility 10.0 miles
Clouds Mostly Cloudy 1100 ft
Overcast 2700 ft
Windchill 18 °F
Dew Point 18 °F
Humidity 100%
Rainfall in
Snow Depth Not available.
7:11 AM 5:44 PM
Waxing Crescent, 47% visible
SPECI KAMW 150025Z AUTO 11005KT 10SM BKN011 OVC027 M06/M08 A2990 RMK AO2 T10611083

10-Day Weather Forecast

Almanac

Astronomy

Feb. 14, 2016 Rise Set
Actual Time
Civil Twilight
Nautical Twilight
Astronomical Twilight
Moon
Length of Visible Light
Length of Day
Tomorrow will be .
, % of the Moon is Illuminated

Today's Extremes

State Highs State Lows

Community

WunderPhotos

Upload Photos

1,892,952 photos uploaded!

WunderBlog® & News

Nearby

Air Quality

  Air Quality AQ Index Pollutant
Not available.

Snow Depth

Station Depth Elevation

Earthquake Activity

City Distance Mag. Time & Date
Minimum magnitude displayed is 2.5.

Coastal Water Temperatures

Place Temperature

Stations

Nearby Weather Stations

Station Location Temp. Windchill Dew Point Humidity Wind Precip. Elev Updated Type
                   

Watches & Warnings

There are currently no watches in effect.